METAR Data
IDs: Format: Raw Decoded Include TAF

Data at: 1037 UTC 28 Sep 2021

LBBG 281030Z 10010KT 060V130 9999 BKN033 20/12 Q1020 NOSIG